Time;durP1;ratioP1;P1;durP2;ratioP2;P2;SDS_P1;SDS_P2;PMS_P1;PMS_P2;Temp;Humidity;BMP_temperature;BMP_pressure;BME280_temperature;BME280_humidity;BME280_pressure;Samples;Min_cycle;Max_cycle;Signal;HPM_P1;HPM_P2
2021/05/27 00:00:13;;;;;;;4.85;1.52;;;;;;;14.25;46.17;96332.27;1685798;83;21104;-77
2021/05/27 00:02:41;;;;;;;1.02;0.50;;;;;;;14.24;46.52;96339.01;1680688;83;21017;-78
2021/05/27 00:05:08;;;;;;;1.47;0.60;;;;;;;14.23;46.61;96333.48;1692215;83;21360;-78
2021/05/27 00:07:34;;;;;;;1.35;0.60;;;;;;;14.19;46.35;96327.87;1705650;82;21092;-80
2021/05/27 00:09:59;;;;;;;2.02;0.75;;;;;;;14.17;46.59;96335.12;1714557;82;21051;-80
2021/05/27 00:12:25;;;;;;;1.47;0.50;;;;;;;14.13;46.62;96326.06;1708346;83;21371;-79
2021/05/27 00:14:51;;;;;;;1.87;0.65;;;;;;;14.11;46.94;96333.30;1712527;81;20971;-80
2021/05/27 00:17:17;;;;;;;1.85;0.68;;;;;;;14.06;47.01;96328.70;1720824;81;20920;-80
2021/05/27 00:19:43;;;;;;;2.65;0.80;;;;;;;14.04;47.11;96340.37;1730228;81;21062;-80
2021/05/27 00:22:08;;;;;;;1.55;0.70;;;;;;;14.03;47.07;96335.65;1739155;81;21035;-79
2021/05/27 00:24:36;;;;;;;1.37;0.50;;;;;;;14.01;47.22;96342.89;1718270;82;21065;-80
2021/05/27 00:27:04;;;;;;;0.80;0.50;;;;;;;14.00;47.16;96340.48;1715106;81;21019;-80
2021/05/27 00:29:30;;;;;;;0.95;0.47;;;;;;;13.99;47.45;96342.77;1725272;81;20986;-79
2021/05/27 00:31:56;;;;;;;1.85;0.62;;;;;;;13.97;47.72;96339.56;1737923;81;20943;-79
2021/05/27 00:34:22;;;;;;;1.35;0.50;;;;;;;13.93;47.70;96339.17;1721008;81;20982;-80
2021/05/27 00:36:48;;;;;;;2.98;0.88;;;;;;;13.92;47.60;96342.79;1721408;81;21042;-77
2021/05/27 00:39:14;;;;;;;1.50;0.65;;;;;;;13.93;47.71;96347.51;1730355;81;21266;-77
2021/05/27 00:41:40;;;;;;;1.45;0.40;;;;;;;13.91;47.84;96344.30;1725847;81;20951;-78
2021/05/27 00:44:27;;;;;;;1.98;0.78;;;;;;;13.90;48.01;96348.72;1726041;81;20959;-78
2021/05/27 00:46:53;;;;;;;1.35;0.55;;;;;;;13.88;48.08;96348.63;1721589;81;20927;-78
2021/05/27 00:49:20;;;;;;;1.47;0.40;;;;;;;13.86;48.17;96343.61;1717133;81;21021;-78
2021/05/27 00:51:46;;;;;;;1.62;0.60;;;;;;;13.84;48.30;96342.22;1714376;81;21046;-80
2021/05/27 00:54:13;;;;;;;2.45;0.80;;;;;;;13.83;48.26;96347.94;1729997;81;21046;-79
2021/05/27 00:56:39;;;;;;;2.15;0.68;;;;;;;13.82;48.37;96350.22;1717315;81;21038;-79
2021/05/27 00:59:05;;;;;;;2.20;0.50;;;;;;;13.80;48.32;96349.13;1719657;81;20951;-80
2021/05/27 01:01:31;;;;;;;1.55;0.40;;;;;;;13.78;48.40;96345.11;1723666;81;20962;-80
2021/05/27 01:03:57;;;;;;;1.65;0.57;;;;;;;13.76;48.43;96347.12;1737183;81;21030;-80
2021/05/27 01:06:23;;;;;;;1.20;0.50;;;;;;;13.75;48.56;96350.24;1725949;81;20951;-80
2021/05/27 01:08:48;;;;;;;1.70;0.78;;;;;;;13.72;48.71;96345.43;1724920;81;20994;-80
2021/05/27 01:11:17;;;;;;;3.42;0.60;;;;;;;13.71;48.76;96352.16;1737936;80;20982;-80
2021/05/27 01:13:44;;;;;;;1.95;0.50;;;;;;;13.69;48.82;96353.67;1717183;80;21342;-79
2021/05/27 01:16:18;;;;;;;1.35;0.90;;;;;;;13.67;49.17;96367.44;1726890;81;21298;-79
2021/05/27 01:18:43;;;;;;;1.45;0.80;;;;;;;13.64;48.87;96359.98;1734804;81;21061;-80
2021/05/27 01:21:09;;;;;;;1.10;0.50;;;;;;;13.61;49.12;96352.55;1736995;80;21457;-78
2021/05/27 01:23:35;;;;;;;2.12;0.80;;;;;;;13.58;49.24;96353.47;1743133;80;20986;-78
2021/05/27 01:26:02;;;;;;;1.05;0.70;;;;;;;13.55;49.35;96359.89;1736773;81;20978;-77
2021/05/27 01:28:30;;;;;;;1.80;0.78;;;;;;;13.54;49.41;96361.41;1730537;81;20962;-78
2021/05/27 01:30:57;;;;;;;2.35;0.55;;;;;;;13.49;49.62;96364.09;1743301;81;21299;-77
2021/05/27 01:33:23;;;;;;;1.02;0.57;;;;;;;13.47;49.68;96355.66;1739752;80;21290;-78
2021/05/27 01:35:48;;;;;;;2.67;0.98;;;;;;;13.45;49.90;96359.47;1729922;82;21129;-78
2021/05/27 01:38:19;;;;;;;2.27;0.50;;;;;;;13.42;50.03;96358.07;1736097;81;21030;-78
2021/05/27 01:40:46;;;;;;;1.87;0.78;;;;;;;13.39;50.10;96353.76;1745115;81;20975;-77
2021/05/27 01:43:12;;;;;;;3.05;0.72;;;;;;;13.38;50.53;96356.88;1738458;80;20943;-78
2021/05/27 01:45:38;;;;;;;1.47;0.70;;;;;;;13.36;50.83;96354.97;1727762;81;20947;-78
2021/05/27 01:48:04;;;;;;;2.05;0.68;;;;;;;13.30;50.83;96357.05;1727474;81;20967;-78
2021/05/27 01:50:30;;;;;;;1.35;0.60;;;;;;;13.27;50.82;96357.95;1734285;80;21881;-78
2021/05/27 01:53:02;;;;;;;1.10;0.60;;;;;;;13.23;51.20;96355.45;1721027;81;21001;-78
2021/05/27 01:55:28;;;;;;;1.42;0.95;;;;;;;13.17;51.13;96359.09;1731018;81;20998;-78
2021/05/27 01:57:55;;;;;;;1.70;0.70;;;;;;;13.14;51.42;96356.89;1725592;81;21029;-77
2021/05/27 02:00:22;;;;;;;2.55;0.98;;;;;;;13.12;52.04;96358.90;1730647;82;20986;-77
2021/05/27 02:02:48;;;;;;;1.98;0.80;;;;;;;13.07;51.46;96357.89;1740306;81;20942;-77
2021/05/27 02:05:14;;;;;;;1.80;0.70;;;;;;;13.05;51.41;96348.16;1737631;80;21022;-78
2021/05/27 02:07:41;;;;;;;1.90;0.60;;;;;;;13.02;51.51;96343.34;1731275;81;21359;-78
2021/05/27 02:10:08;;;;;;;0.85;0.60;;;;;;;13.01;51.78;96351.64;1715542;82;21051;-78
2021/05/27 02:12:34;;;;;;;1.85;0.60;;;;;;;12.98;51.98;96353.84;1738098;81;21078;-78
2021/05/27 02:15:00;;;;;;;1.07;0.68;;;;;;;12.95;51.77;96355.05;1720953;81;20978;-79
2021/05/27 02:17:25;;;;;;;0.90;0.60;;;;;;;12.93;51.89;96353.14;1733862;81;20935;-78
2021/05/27 02:19:51;;;;;;;1.07;0.78;;;;;;;12.89;51.98;96357.15;1720724;81;20986;-79
2021/05/27 02:22:17;;;;;;;1.95;0.72;;;;;;;12.85;52.11;96351.53;1739835;81;21247;-79
2021/05/27 02:24:43;;;;;;;2.37;0.98;;;;;;;12.84;52.15;96356.41;1733862;81;21066;-77
2021/05/27 02:27:09;;;;;;;1.80;0.70;;;;;;;12.82;52.27;96353.20;1725322;81;21393;-77
2021/05/27 02:29:35;;;;;;;3.15;1.00;;;;;;;12.79;52.30;96365.33;1728752;81;21007;-76
2021/05/27 02:32:00;;;;;;;1.70;0.70;;;;;;;12.76;52.51;96369.64;1732285;81;21010;-78
2021/05/27 02:34:26;;;;;;;0.72;0.50;;;;;;;12.73;52.73;96381.77;1729209;82;21086;-79
2021/05/27 02:36:52;;;;;;;2.25;0.70;;;;;;;12.69;52.79;96376.64;1721246;81;20990;-81
2021/05/27 02:39:18;;;;;;;2.22;0.60;;;;;;;12.68;52.83;96384.63;1721316;82;20998;-79
2021/05/27 02:41:44;;;;;;;3.37;0.90;;;;;;;12.65;53.09;96383.22;1727625;81;21586;-79
2021/05/27 02:44:09;;;;;;;1.35;0.60;;;;;;;12.63;53.12;96393.05;1720213;81;21252;-79
2021/05/27 02:46:35;;;;;;;4.37;0.80;;;;;;;12.61;53.37;96392.44;1720458;81;20959;-79
2021/05/27 02:49:01;;;;;;;2.42;0.80;;;;;;;12.58;53.59;96395.44;1733190;81;21152;-79
2021/05/27 02:51:27;;;;;;;1.45;0.68;;;;;;;12.55;53.56;96388.02;1727605;81;20966;-79
2021/05/27 02:53:52;;;;;;;1.55;0.85;;;;;;;12.54;53.51;96395.53;1722004;81;21312;-79
2021/05/27 02:56:19;;;;;;;1.20;0.68;;;;;;;12.51;53.72;96391.48;1724757;81;20999;-79
2021/05/27 02:58:45;;;;;;;2.22;0.80;;;;;;;12.51;53.88;96393.28;1720232;81;21042;-79
2021/05/27 03:05:11;;;;;;;2.05;0.70;;;;;;;12.47;54.24;96401.98;1712131;81;21317;-79
2021/05/27 03:07:36;;;;;;;1.72;0.60;;;;;;;12.40;54.31;96398.56;1713451;81;20982;-79
2021/05/27 03:10:03;;;;;;;1.10;0.70;;;;;;;12.41;54.26;96405.38;1717705;81;20963;-80
2021/05/27 03:12:29;;;;;;;3.27;0.90;;;;;;;12.39;54.28;96401.36;1718232;81;21345;-80
2021/05/27 03:14:55;;;;;;;3.20;0.85;;;;;;;12.36;54.47;96401.22;1729563;81;20965;-80
2021/05/27 03:17:21;;;;;;;1.15;0.57;;;;;;;12.31;54.46;96410.92;1730169;81;20937;-81
2021/05/27 03:19:47;;;;;;;1.07;0.70;;;;;;;12.28;54.77;96416.52;1723855;81;20981;-78
2021/05/27 03:22:12;;;;;;;1.52;0.70;;;;;;;12.26;54.87;96419.02;1737940;81;21002;-79
2021/05/27 03:24:38;;;;;;;2.42;0.80;;;;;;;12.22;54.84;96414.69;1736554;81;20949;-79
2021/05/27 03:27:06;;;;;;;2.33;0.85;;;;;;;12.19;55.11;96412.44;1738757;82;20977;-79
2021/05/27 03:29:31;;;;;;;2.08;0.80;;;;;;;12.15;55.32;96410.41;1730274;81;20970;-79
2021/05/27 03:31:57;;;;;;;1.90;0.80;;;;;;;12.11;55.49;96418.31;1730289;81;20964;-78
2021/05/27 03:34:23;;;;;;;0.93;0.70;;;;;;;12.07;55.59;96406.67;1727404;81;21005;-79
2021/05/27 03:36:49;;;;;;;1.40;0.72;;;;;;;12.02;55.67;96405.41;1725322;81;21021;-79
2021/05/27 03:39:14;;;;;;;3.05;0.70;;;;;;;12.02;55.83;96409.32;1663705;84;20952;-79
2021/05/27 03:41:40;;;;;;;2.05;0.70;;;;;;;12.03;55.77;96411.43;1731600;81;20941;-79
2021/05/27 03:44:06;;;;;;;1.20;0.60;;;;;;;12.06;56.07;96410.27;1735854;81;20958;-79
2021/05/27 03:46:32;;;;;;;1.65;0.85;;;;;;;12.08;56.14;96414.79;1745314;81;21010;-79
2021/05/27 03:48:58;;;;;;;1.77;0.50;;;;;;;12.09;56.06;96413.30;1724723;81;21362;-79
2021/05/27 03:51:24;;;;;;;2.08;0.65;;;;;;;12.11;55.92;96410.00;1730858;81;21013;-79
2021/05/27 03:53:50;;;;;;;0.72;0.40;;;;;;;12.13;56.21;96409.30;1727155;81;20997;-79
2021/05/27 03:56:15;;;;;;;1.82;0.62;;;;;;;12.17;56.19;96408.42;1728672;81;21295;-79
2021/05/27 04:01:25;;;;;;;1.75;0.50;;;;;;;12.29;56.09;96410.81;1718966;81;21033;-79
2021/05/27 04:09:19;;;;;;;2.20;0.60;;;;;;;12.56;56.12;96407.86;1709246;82;21081;-79
2021/05/27 04:11:45;;;;;;;1.55;0.50;;;;;;;12.64;55.66;96399.86;1742305;81;20988;-79
2021/05/27 04:14:11;;;;;;;0.75;0.30;;;;;;;12.71;55.69;96395.50;1740693;80;21271;-79
2021/05/27 04:16:37;;;;;;;2.40;0.40;;;;;;;12.80;55.75;96397.42;1745044;80;20965;-79
2021/05/27 04:19:03;;;;;;;1.00;0.37;;;;;;;12.88;55.70;96403.78;1708486;80;20891;-78
2021/05/27 04:21:29;;;;;;;1.10;0.50;;;;;;;12.96;55.69;96398.88;1723953;80;21018;-77
2021/05/27 04:23:54;;;;;;;1.20;0.40;;;;;;;13.05;55.35;96389.90;1725750;80;21306;-77
2021/05/27 04:26:21;;;;;;;0.68;0.40;;;;;;;13.15;55.05;96395.52;1718594;82;21319;-78
2021/05/27 04:28:47;;;;;;;0.70;0.40;;;;;;;13.21;55.43;96386.45;1738903;80;21049;-77
2021/05/27 04:31:16;;;;;;;0.85;0.40;;;;;;;13.28;54.90;96381.23;1737366;80;20918;-77
2021/05/27 04:33:53;;;;;;;0.65;0.25;;;;;;;13.32;54.64;96385.05;1742111;80;20970;-77
2021/05/27 04:36:19;;;;;;;1.10;1.00;;;;;;;13.33;54.08;96386.66;1749849;80;21245;-77
2021/05/27 04:38:46;;;;;;;1.20;0.40;;;;;;;13.32;54.15;96379.83;1744398;82;21069;-78
2021/05/27 04:41:12;;;;;;;0.50;0.30;;;;;;;13.32;53.78;96382.44;1753455;80;20966;-77
2021/05/27 04:43:39;;;;;;;1.02;0.68;;;;;;;13.32;53.89;96380.33;1739512;80;21048;-77
2021/05/27 04:46:05;;;;;;;0.78;0.50;;;;;;;13.32;53.65;96386.86;1736336;80;21046;-78
2021/05/27 04:48:31;;;;;;;0.72;0.57;;;;;;;13.33;53.62;96385.85;1747249;80;21035;-78
2021/05/27 04:50:57;;;;;;;0.62;0.42;;;;;;;13.36;53.78;96397.22;1750071;80;21010;-78
2021/05/27 04:53:24;;;;;;;1.05;0.60;;;;;;;13.40;53.93;96391.91;1743343;80;20966;-78
2021/05/27 04:55:50;;;;;;;1.10;0.57;;;;;;;13.41;53.79;96394.31;1737023;80;21041;-77
2021/05/27 04:58:16;;;;;;;0.72;0.70;;;;;;;13.43;53.67;96395.41;1724958;82;21018;-78
2021/05/27 05:00:41;;;;;;;0.93;0.42;;;;;;;13.44;54.21;96402.23;1749961;80;20970;-79
2021/05/27 05:03:07;;;;;;;0.78;0.50;;;;;;;13.45;54.44;96403.34;1738859;80;20946;-79
2021/05/27 05:05:35;;;;;;;1.92;0.80;;;;;;;13.48;54.28;96407.36;1741371;80;20995;-79
2021/05/27 05:08:01;;;;;;;1.52;0.60;;;;;;;13.50;54.70;96406.66;1754619;81;20939;-79
2021/05/27 05:10:27;;;;;;;1.10;0.57;;;;;;;13.54;55.02;96409.19;1725743;80;21320;-79
2021/05/27 05:12:54;;;;;;;1.30;0.60;;;;;;;13.53;55.28;96411.50;1745074;80;21021;-79
2021/05/27 05:15:29;;;;;;;2.08;0.72;;;;;;;13.54;55.65;96415.72;1686162;84;20962;-79
2021/05/27 05:17:57;;;;;;;2.08;0.60;;;;;;;13.53;55.18;96415.92;1725138;80;20966;-79
2021/05/27 05:20:28;;;;;;;1.52;0.70;;;;;;;13.54;55.27;96411.00;1730465;80;21008;-79
2021/05/27 05:22:54;;;;;;;1.55;0.70;;;;;;;13.58;55.14;96410.89;1732275;80;21061;-79
2021/05/27 05:25:21;;;;;;;1.42;0.62;;;;;;;13.64;55.37;96412.70;1735590;80;21391;-79
2021/05/27 05:27:47;;;;;;;0.88;0.65;;;;;;;13.68;55.78;96413.93;1730498;80;21086;-79
2021/05/27 05:30:14;;;;;;;1.45;0.72;;;;;;;13.70;55.58;96417.14;1743333;80;20986;-80
2021/05/27 05:32:40;;;;;;;1.75;0.50;;;;;;;13.73;55.31;96414.92;1752992;80;20970;-79
2021/05/27 05:35:07;;;;;;;1.95;0.60;;;;;;;13.80;55.79;96414.41;1746107;80;21443;-79
2021/05/27 05:37:33;;;;;;;1.07;0.50;;;;;;;13.89;55.36;96419.45;1742469;80;20934;-79
2021/05/27 05:39:58;;;;;;;0.93;0.40;;;;;;;13.95;55.20;96419.94;1716190;80;20966;-79
2021/05/27 05:42:24;;;;;;;1.72;0.50;;;;;;;14.02;54.74;96420.25;1730455;80;20997;-79
2021/05/27 05:44:52;;;;;;;1.02;0.85;;;;;;;14.07;54.36;96422.25;1731728;80;21438;-79
2021/05/27 05:47:18;;;;;;;0.80;0.40;;;;;;;14.10;54.57;96424.45;1738183;80;21135;-80
2021/05/27 05:49:44;;;;;;;1.02;0.45;;;;;;;14.12;54.11;96421.13;1727544;80;21259;-79
2021/05/27 05:52:09;;;;;;;0.98;0.50;;;;;;;14.17;54.00;96416.13;1731429;80;21013;-79
2021/05/27 05:54:35;;;;;;;1.12;0.40;;;;;;;14.22;54.00;96417.61;1734954;80;20970;-79
2021/05/27 05:57:01;;;;;;;1.00;0.40;;;;;;;14.25;54.16;96419.81;1745006;80;21259;-79
2021/05/27 05:59:27;;;;;;;1.32;0.82;;;;;;;14.30;54.01;96426.53;1735295;80;20946;-79
2021/05/27 06:01:52;;;;;;;0.60;0.40;;;;;;;14.32;54.26;96432.39;1738785;80;20923;-79
2021/05/27 06:04:18;;;;;;;1.80;0.42;;;;;;;14.32;53.83;96432.39;1741794;80;20978;-77
2021/05/27 06:06:44;;;;;;;1.17;0.60;;;;;;;14.30;53.53;96431.77;1734922;80;21231;-80
2021/05/27 06:09:09;;;;;;;1.65;0.40;;;;;;;14.35;53.14;96435.09;1740660;80;20982;-78
2021/05/27 06:11:35;;;;;;;0.68;0.40;;;;;;;14.40;53.46;96432.66;1739428;80;21283;-78
2021/05/27 06:14:01;;;;;;;1.40;0.80;;;;;;;14.49;53.54;96434.60;1728592;80;21026;-79
2021/05/27 06:16:27;;;;;;;1.45;0.30;;;;;;;14.55;53.37;96441.11;1740847;81;20951;-80
2021/05/27 06:18:53;;;;;;;0.98;0.60;;;;;;;14.66;53.81;96431.34;1733757;80;21252;-79
2021/05/27 06:21:19;;;;;;;9.45;4.75;;;;;;;14.79;53.73;96442.23;1733855;80;21526;-80
2021/05/27 06:23:44;;;;;;;2.10;1.60;;;;;;;14.88;54.42;96438.90;1724383;81;20945;-79
2021/05/27 06:26:11;;;;;;;1.72;1.40;;;;;;;15.01;53.54;96439.66;1732745;80;21002;-80
2021/05/27 06:28:37;;;;;;;0.80;0.62;;;;;;;15.13;52.79;96443.74;1731540;80;20969;-79
2021/05/27 06:31:03;;;;;;;2.55;1.10;;;;;;;15.20;52.57;96442.39;1725805;80;21038;-79
2021/05/27 06:33:29;;;;;;;1.92;0.78;;;;;;;15.26;52.33;96442.34;1728036;81;20970;-79
2021/05/27 06:35:54;;;;;;;12.43;7.55;;;;;;;15.31;52.11;96437.30;1740053;81;20951;-78
2021/05/27 06:38:20;;;;;;;8.25;5.72;;;;;;;15.30;51.44;96433.59;1730236;81;20927;-78
2021/05/27 06:40:45;;;;;;;3.00;1.30;;;;;;;15.30;51.69;96434.90;1739449;80;20880;-78
2021/05/27 06:43:11;;;;;;;4.33;1.77;;;;;;;15.31;50.93;96441.23;1734340;81;20943;-80
2021/05/27 06:45:37;;;;;;;3.45;1.87;;;;;;;15.31;51.21;96447.78;1738345;81;20945;-80
2021/05/27 06:48:04;;;;;;;15.43;10.08;;;;;;;15.33;51.47;96450.18;1726904;81;21038;-80
2021/05/27 06:50:34;;;;;;;6.08;4.25;;;;;;;15.33;51.92;96444.95;1724296;80;21009;-80
2021/05/27 06:53:06;;;;;;;6.42;4.00;;;;;;;15.35;50.93;96449.97;1724467;80;20919;-79
2021/05/27 06:55:32;;;;;;;2.83;2.08;;;;;;;15.37;50.54;96459.22;1728246;81;21004;-80
2021/05/27 06:57:58;;;;;;;4.35;2.58;;;;;;;15.38;50.53;96462.13;1731946;80;20958;-79
2021/05/27 07:00:24;;;;;;;3.12;2.00;;;;;;;15.34;50.51;96464.87;1735683;81;20918;-78
2021/05/27 07:02:51;;;;;;;1.65;0.80;;;;;;;15.33;50.78;96455.41;1728010;81;21624;-78
2021/05/27 07:05:18;;;;;;;0.98;0.70;;;;;;;15.40;50.88;96459.30;1735894;81;20961;-80
2021/05/27 07:07:47;;;;;;;1.87;0.82;;;;;;;15.33;51.00;96456.73;1742899;81;21035;-79
2021/05/27 07:10:14;;;;;;;1.65;1.00;;;;;;;15.22;51.88;96462.61;1729535;81;21255;-80
2021/05/27 07:12:53;;;;;;;0.93;0.60;;;;;;;15.25;52.10;96464.80;1733288;81;21041;-80
2021/05/27 07:15:20;;;;;;;1.32;0.42;;;;;;;15.27;51.70;96465.39;1732192;80;21200;-80
2021/05/27 07:17:47;;;;;;;0.95;0.70;;;;;;;15.29;51.72;96462.06;1727701;81;20950;-80
2021/05/27 07:20:13;;;;;;;2.92;1.15;;;;;;;15.39;51.44;96462.42;1729642;80;20951;-80
2021/05/27 07:22:39;;;;;;;1.42;0.70;;;;;;;15.49;51.08;96481.62;1740687;80;21324;-80
2021/05/27 07:25:06;;;;;;;1.20;0.70;;;;;;;15.53;50.99;96484.11;1736944;81;20934;-80
2021/05/27 07:27:33;;;;;;;1.37;0.93;;;;;;;15.54;50.94;96480.47;1731072;81;20971;-81
2021/05/27 07:29:59;;;;;;;1.00;0.60;;;;;;;15.54;50.80;96477.85;1737678;81;21248;-79
2021/05/27 07:32:25;;;;;;;1.10;0.60;;;;;;;15.66;51.68;96481.95;1738457;81;20943;-79
2021/05/27 07:34:50;;;;;;;0.62;0.40;;;;;;;15.78;51.12;96475.84;1738897;81;20946;-79
2021/05/27 07:37:16;;;;;;;0.30;0.23;;;;;;;15.86;50.53;96478.69;1728825;81;20922;-80
2021/05/27 07:39:42;;;;;;;1.30;0.50;;;;;;;15.96;50.51;96479.55;1719433;81;20983;-79
2021/05/27 07:42:07;;;;;;;1.12;0.50;;;;;;;15.89;49.04;96487.44;1742550;81;21180;-80
2021/05/27 07:44:34;;;;;;;0.80;0.37;;;;;;;15.79;48.79;96487.92;1733983;80;21077;-80
2021/05/27 07:47:00;;;;;;;0.62;0.42;;;;;;;15.82;49.38;96495.86;1726259;81;20947;-80
2021/05/27 07:49:27;;;;;;;2.30;0.88;;;;;;;15.84;49.58;96487.27;1724386;80;20951;-80
2021/05/27 07:51:56;;;;;;;1.02;0.53;;;;;;;15.90;50.29;96481.17;1735715;81;21041;-80
2021/05/27 07:54:22;;;;;;;1.22;0.40;;;;;;;16.07;50.45;96486.19;1736121;81;20915;-79
2021/05/27 07:56:48;;;;;;;1.05;0.45;;;;;;;16.12;49.09;96488.20;1726421;80;20935;-80
2021/05/27 07:59:14;;;;;;;0.60;0.40;;;;;;;16.10;48.75;96489.69;1735500;80;20998;-80
2021/05/27 08:01:43;;;;;;;0.78;0.55;;;;;;;16.06;48.32;96478.55;1728700;81;21236;-79
2021/05/27 08:04:09;;;;;;;1.10;0.40;;;;;;;16.09;49.29;96490.70;1732448;81;21380;-79
2021/05/27 08:06:35;;;;;;;1.80;0.42;;;;;;;16.13;48.22;96493.22;1733081;81;21307;-80
2021/05/27 08:09:06;;;;;;;1.27;0.53;;;;;;;16.02;48.66;96504.38;1728912;81;21356;-80
2021/05/27 08:11:31;;;;;;;1.15;0.53;;;;;;;15.94;48.38;96503.31;1737635;82;20994;-80
2021/05/27 08:13:57;;;;;;;0.70;0.40;;;;;;;15.88;48.46;96498.93;1731116;80;20994;-80
2021/05/27 08:16:23;;;;;;;1.27;0.60;;;;;;;15.89;48.55;96499.22;1739801;80;20950;-80
2021/05/27 08:18:49;;;;;;;1.27;0.35;;;;;;;15.97;49.58;96500.30;1746524;80;20981;-79
2021/05/27 08:21:15;;;;;;;1.32;0.47;;;;;;;16.07;49.76;96495.36;1729919;80;21017;-79
2021/05/27 08:23:41;;;;;;;1.00;0.60;;;;;;;16.20;49.08;96497.09;1737332;80;20938;-80
2021/05/27 08:26:07;;;;;;;0.70;0.50;;;;;;;16.35;50.07;96497.56;1727382;80;20942;-80
2021/05/27 08:28:33;;;;;;;1.42;0.55;;;;;;;16.69;50.55;96496.27;1747818;80;20974;-79
2021/05/27 08:30:58;;;;;;;0.70;0.45;;;;;;;17.00;50.02;96489.30;1741436;80;20985;-79
2021/05/27 08:33:24;;;;;;;1.85;0.50;;;;;;;17.21;49.69;96482.78;1738683;80;20954;-79
2021/05/27 08:35:50;;;;;;;3.35;1.60;;;;;;;17.42;49.47;96478.91;1736903;82;20958;-78
2021/05/27 08:38:16;;;;;;;2.30;1.15;;;;;;;17.58;49.39;96487.48;1726778;80;20918;-80
2021/05/27 08:40:42;;;;;;;1.20;0.90;;;;;;;17.73;49.08;96489.70;1728881;80;20935;-80
2021/05/27 08:43:07;;;;;;;2.22;0.90;;;;;;;17.78;48.27;96484.09;1738203;80;20934;-79
2021/05/27 08:45:34;;;;;;;1.30;0.70;;;;;;;17.99;48.88;96480.93;1725125;80;20966;-79
2021/05/27 08:48:00;;;;;;;1.22;0.70;;;;;;;18.20;48.45;96480.89;1732865;80;20994;-79
2021/05/27 08:50:31;;;;;;;1.40;0.50;;;;;;;18.34;48.20;96476.23;1739617;80;21095;-79
2021/05/27 08:52:58;;;;;;;1.62;0.60;;;;;;;18.53;48.88;96483.48;1731890;80;20938;-79
2021/05/27 08:55:23;;;;;;;0.98;0.37;;;;;;;18.66;47.73;96490.39;1738709;80;21314;-79
2021/05/27 08:57:49;;;;;;;1.22;0.55;;;;;;;18.45;47.34;96485.97;1747275;80;21068;-79
2021/05/27 09:00:16;;;;;;;1.05;0.60;;;;;;;18.45;46.74;96496.48;1734258;82;20994;-79
2021/05/27 09:02:56;;;;;;;1.57;0.60;;;;;;;18.43;46.56;96493.80;1737045;80;20997;-79
2021/05/27 09:05:24;;;;;;;1.15;0.60;;;;;;;18.42;45.02;96493.52;1742753;80;20981;-79
2021/05/27 09:07:49;;;;;;;3.33;0.72;;;;;;;18.26;45.83;96492.36;1734491;80;21009;-80
2021/05/27 09:10:15;;;;;;;2.60;0.80;;;;;;;18.20;46.59;96493.25;1745316;80;20950;-80
2021/05/27 09:12:41;;;;;;;1.07;0.60;;;;;;;18.21;45.85;96498.80;1737021;80;21268;-79
2021/05/27 09:15:18;;;;;;;0.90;0.50;;;;;;;18.17;46.02;96491.88;1726544;81;21023;-81
2021/05/27 09:17:52;;;;;;;1.90;0.70;;;;;;;18.22;46.32;96485.92;1711899;81;20986;-80
2021/05/27 09:20:23;;;;;;;0.90;0.50;;;;;;;18.36;47.84;96491.78;1727178;81;21291;-80
2021/05/27 09:23:09;;;;;;;0.90;0.70;;;;;;;18.45;46.12;96485.97;1725066;81;21941;-80
2021/05/27 09:25:36;;;;;;;1.30;0.60;;;;;;;18.50;45.71;96481.33;1715773;81;21022;-81
2021/05/27 09:28:02;;;;;;;1.47;0.50;;;;;;;18.56;46.65;96483.86;1723414;81;20966;-81
2021/05/27 09:30:28;;;;;;;1.30;0.50;;;;;;;18.56;45.62;96487.00;1730971;81;21030;-80
2021/05/27 09:32:54;;;;;;;2.25;0.78;;;;;;;18.52;46.39;96493.73;1736213;81;21019;-81
2021/05/27 09:35:20;;;;;;;1.02;0.70;;;;;;;18.44;46.28;96494.89;1726592;81;21077;-81
2021/05/27 09:37:52;;;;;;;1.17;0.65;;;;;;;18.43;47.21;96500.38;1728972;81;21030;-79
2021/05/27 09:40:31;;;;;;;;;;;;;;;18.42;46.90;96497.46;1728619;81;20955;-80
2021/05/27 09:42:59;;;;;;;1.57;0.70;;;;;;;18.21;46.99;96491.70;1705734;82;20421;-79
2021/05/27 09:45:28;;;;;;;1.22;0.55;;;;;;;18.07;47.25;96506.11;1719343;81;20958;-79
2021/05/27 09:47:54;;;;;;;1.17;0.60;;;;;;;18.00;47.20;96508.82;1719607;81;20974;-80
2021/05/27 09:50:30;;;;;;;2.17;1.02;;;;;;;18.02;47.47;96501.22;1720328;81;21050;-79
2021/05/27 09:52:48;;;;;;;1.67;0.85;;;;;;;18.11;47.76;96502.52;1726695;81;21002;-81
2021/05/27 09:55:19;;;;;;;2.30;1.00;;;;;;;18.09;47.56;96511.14;1685854;83;21279;-81
2021/05/27 09:57:49;;;;;;;2.12;1.10;;;;;;;18.14;47.33;96507.31;1683223;83;21010;-80
2021/05/27 10:00:29;;;;;;;5.37;3.60;;;;;;;18.20;47.39;96517.72;1659143;84;21066;-80
2021/05/27 10:02:55;;;;;;;1.47;1.00;;;;;;;18.23;47.23;96522.55;1681478;83;20958;-81
2021/05/27 10:05:21;;;;;;;2.47;1.75;;;;;;;18.10;47.38;96521.43;1671015;84;21089;-81
2021/05/27 10:07:52;;;;;;;2.37;1.00;;;;;;;17.98;46.34;96514.02;1696284;83;20963;-80
2021/05/27 10:10:21;;;;;;;1.55;0.75;;;;;;;18.04;48.58;96517.05;1690882;83;21386;-80
2021/05/27 10:12:50;;;;;;;3.45;1.22;;;;;;;18.08;47.38;96519.55;1676899;83;21327;-80
2021/05/27 10:15:18;;;;;;;2.77;1.72;;;;;;;18.06;47.03;96511.09;1696397;83;20971;-80
2021/05/27 10:17:47;;;;;;;2.87;1.00;;;;;;;18.03;46.08;96512.02;1669253;83;21037;-80
2021/05/27 10:20:18;;;;;;;1.12;0.82;;;;;;;17.92;46.41;96509.16;1679977;84;21302;-80
2021/05/27 10:22:45;;;;;;;1.57;0.75;;;;;;;17.84;46.63;96519.98;1656816;83;21172;-81
2021/05/27 10:25:13;;;;;;;1.00;0.78;;;;;;;17.77;47.00;96516.66;1668598;84;21093;-79
2021/05/27 10:27:45;;;;;;;2.85;1.32;;;;;;;17.82;46.85;96514.66;1700639;84;21013;-79
2021/05/27 10:30:11;;;;;;;6.35;0.80;;;;;;;17.83;47.17;96521.52;1676308;83;21030;-79
2021/05/27 10:32:39;;;;;;;1.92;0.68;;;;;;;17.68;46.71;96514.84;1700381;82;21026;-79
2021/05/27 10:35:06;;;;;;;5.53;4.90;;;;;;;17.65;47.89;96508.69;1682215;82;21049;-79
2021/05/27 10:37:42;;;;;;;6.20;4.67;;;;;;;17.64;47.88;96516.28;1697608;83;21050;-80
2021/05/27 10:40:32;;;;;;;1.50;1.12;;;;;;;17.67;47.74;96520.28;1677523;84;21282;-79
2021/05/27 10:43:09;;;;;;;2.27;1.02;;;;;;;17.66;47.12;96516.05;1697470;83;21065;-80
2021/05/27 10:45:35;;;;;;;3.52;2.08;;;;;;;17.57;47.38;96516.06;1670388;84;20985;-79
2021/05/27 10:48:18;;;;;;;3.90;1.40;;;;;;;17.48;47.27;96523.47;1700590;84;21014;-79
2021/05/27 10:53:40;;;;;;;2.08;0.70;;;;;;;17.65;47.41;96515.25;1708549;82;20966;-79
2021/05/27 10:56:12;;;;;;;1.67;0.80;;;;;;;17.74;46.86;96526.30;1705675;82;21013;-79
2021/05/27 10:58:52;;;;;;;1.50;0.70;;;;;;;17.72;46.62;96524.38;1694292;82;21401;-79
2021/05/27 11:01:32;;;;;;;2.05;0.60;;;;;;;17.77;47.21;96529.80;1682773;84;21054;-79
2021/05/27 11:04:01;;;;;;;1.27;0.70;;;;;;;17.92;47.81;96528.88;1651079;85;21047;-79
2021/05/27 11:06:37;;;;;;;2.75;0.80;;;;;;;18.01;47.10;96522.77;1670443;84;21017;-78
2021/05/27 11:09:24;;;;;;;1.98;1.12;;;;;;;17.97;46.93;96519.80;1702460;82;20961;-78
2021/05/27 11:11:57;;;;;;;1.12;0.70;;;;;;;17.96;47.67;96523.45;1680776;84;21013;-79
2021/05/27 11:14:40;;;;;;;1.35;0.60;;;;;;;17.99;47.34;96526.94;1682592;84;21013;-79
2021/05/27 11:17:15;;;;;;;1.15;0.60;;;;;;;17.90;46.80;96528.81;1690382;83;21021;-79
2021/05/27 11:22:46;;;;;;;1.27;0.80;;;;;;;17.73;47.48;96533.87;1690959;83;20998;-80
2021/05/27 11:25:15;;;;;;;1.80;0.70;;;;;;;17.63;47.26;96536.22;1696314;83;21050;-80
2021/05/27 11:27:53;;;;;;;1.30;0.80;;;;;;;17.64;47.82;96537.30;1684017;83;20966;-80
2021/05/27 11:30:40;;;;;;;1.42;0.78;;;;;;;17.63;47.63;96544.90;1672391;83;20982;-80
2021/05/27 11:33:16;;;;;;;2.90;0.80;;;;;;;17.57;47.76;96546.28;1687558;83;21046;-80
2021/05/27 11:35:47;;;;;;;1.52;0.80;;;;;;;17.49;47.78;96543.45;1678539;83;21113;-80
2021/05/27 11:38:22;;;;;;;0.75;0.50;;;;;;;17.51;48.19;96544.55;1694168;83;20993;-80
2021/05/27 11:40:55;;;;;;;1.42;0.50;;;;;;;17.59;48.89;96541.12;1692553;83;21263;-81
2021/05/27 11:43:34;;;;;;;3.40;0.70;;;;;;;17.61;48.04;96543.52;1730574;81;20994;-79
2021/05/27 11:46:05;;;;;;;1.87;0.70;;;;;;;17.47;47.61;96538.14;1714109;81;21014;-80
2021/05/27 11:48:32;;;;;;;1.52;0.72;;;;;;;17.35;47.94;96539.38;1715430;81;21331;-78
2021/05/27 11:51:10;;;;;;;1.90;1.05;;;;;;;17.30;48.00;96540.56;1725478;81;21038;-79
2021/05/27 11:53:48;;;;;;;1.02;0.62;;;;;;;17.23;47.70;96534.56;1729004;81;20971;-79